Etusivu
METAR-TAF:

METAR-TAF

Lentoasemat :

West Memphis, Arkansas, Yhdysvallat

Leveyspiiri: 35-08N, Pituuspiiri: 090-14W, korkeus merenpinnasta: 65 m

Tämänhetkinen sää

Tämä raportti tehtiin 17 minuuttia sitten, kello 16.53 UTC
Tuuli 5 kn etelästä/lounaasta
Lämpötila 7°C
Kosteus 49%
Ilmanpaine 1033 hPa
Näkyvyys: 16.1 km
selkeää

METAR: KAWM 221653Z AUTO 20005KT 10SM CLR 07/M03 A3049 RMK AO2 SLP325 T00671033

Aika: 11:10 (17:10 UTC)


TAF: puuttuu

Säähavainnot ja -ennusteet yli 4000 lentoasemalta (METAR- ja TAF-raportit).

Käytössä olevat sääasemat on merkitty karttaan keltaisilla ja punaisilla pisteillä.

Aseta hiiri pisteen päälle nähdäksesi sääaseman nimen.

Klikkaa sitten nähdäksesi säähavainnot ja -ennusteet.

Kartan vaihtaminen: klikkaa mustalla rastilla varustettuja vihreitä pisteitä, niin voit zoomata sisään; viivalla varustettua vihreää pistettä, niin voit zoomata ulos tai vihreitä nuolia, niin pääset viereisille kartoille.


METAR-TAF: